sensor_id;sensor_type;location;lat;lon;timestamp;P1;durP1;ratioP1;P2;durP2;ratioP2
10303;SDS011;5197;48.152;8.590;2024-02-14T00:00:24;4.23;;;2.70;;
10303;SDS011;5197;48.152;8.590;2024-02-14T00:02:51;5.60;;;2.10;;
10303;SDS011;5197;48.152;8.590;2024-02-14T00:05:18;4.27;;;2.00;;
10303;SDS011;5197;48.152;8.590;2024-02-14T00:07:45;4.27;;;2.43;;
10303;SDS011;5197;48.152;8.590;2024-02-14T00:10:12;2.30;;;2.10;;
10303;SDS011;5197;48.152;8.590;2024-02-14T00:12:38;3.33;;;2.23;;
10303;SDS011;5197;48.152;8.590;2024-02-14T00:15:05;3.77;;;2.00;;
10303;SDS011;5197;48.152;8.590;2024-02-14T00:17:34;3.23;;;2.20;;
10303;SDS011;5197;48.152;8.590;2024-02-14T00:20:02;3.77;;;2.37;;
10303;SDS011;5197;48.152;8.590;2024-02-14T00:22:30;3.37;;;2.10;;
10303;SDS011;5197;48.152;8.590;2024-02-14T00:24:57;3.40;;;2.30;;
10303;SDS011;5197;48.152;8.590;2024-02-14T00:27:24;6.20;;;2.43;;
10303;SDS011;5197;48.152;8.590;2024-02-14T00:29:52;4.03;;;2.27;;
10303;SDS011;5197;48.152;8.590;2024-02-14T00:32:21;14.47;;;3.00;;
10303;SDS011;5197;48.152;8.590;2024-02-14T00:34:48;4.10;;;2.60;;
10303;SDS011;5197;48.152;8.590;2024-02-14T00:37:16;6.30;;;2.17;;
10303;SDS011;5197;48.152;8.590;2024-02-14T00:39:43;3.90;;;1.90;;
10303;SDS011;5197;48.152;8.590;2024-02-14T00:42:10;3.53;;;2.17;;
10303;SDS011;5197;48.152;8.590;2024-02-14T00:44:37;5.77;;;2.20;;
10303;SDS011;5197;48.152;8.590;2024-02-14T00:47:04;2.30;;;2.10;;
10303;SDS011;5197;48.152;8.590;2024-02-14T00:49:34;6.53;;;2.33;;
10303;SDS011;5197;48.152;8.590;2024-02-14T00:52:01;4.10;;;2.03;;
10303;SDS011;5197;48.152;8.590;2024-02-14T00:54:28;2.27;;;1.73;;
10303;SDS011;5197;48.152;8.590;2024-02-14T00:56:55;3.43;;;2.03;;
10303;SDS011;5197;48.152;8.590;2024-02-14T00:59:22;3.37;;;1.83;;
10303;SDS011;5197;48.152;8.590;2024-02-14T01:01:51;5.73;;;2.13;;
10303;SDS011;5197;48.152;8.590;2024-02-14T01:04:18;5.87;;;2.83;;
10303;SDS011;5197;48.152;8.590;2024-02-14T01:06:45;2.80;;;2.30;;
10303;SDS011;5197;48.152;8.590;2024-02-14T01:09:11;4.20;;;1.97;;
10303;SDS011;5197;48.152;8.590;2024-02-14T01:11:38;4.97;;;2.30;;
10303;SDS011;5197;48.152;8.590;2024-02-14T01:14:05;5.77;;;1.97;;
10303;SDS011;5197;48.152;8.590;2024-02-14T01:16:32;2.37;;;2.17;;
10303;SDS011;5197;48.152;8.590;2024-02-14T01:18:59;4.70;;;2.20;;
10303;SDS011;5197;48.152;8.590;2024-02-14T01:21:26;5.23;;;2.83;;
10303;SDS011;5197;48.152;8.590;2024-02-14T01:23:53;5.20;;;2.23;;
10303;SDS011;5197;48.152;8.590;2024-02-14T01:26:20;4.80;;;2.03;;
10303;SDS011;5197;48.152;8.590;2024-02-14T01:28:47;3.43;;;2.33;;
10303;SDS011;5197;48.152;8.590;2024-02-14T01:31:15;4.00;;;2.20;;
10303;SDS011;5197;48.152;8.590;2024-02-14T01:33:41;6.37;;;2.00;;
10303;SDS011;5197;48.152;8.590;2024-02-14T01:36:10;3.00;;;1.90;;
10303;SDS011;5197;48.152;8.590;2024-02-14T01:38:37;4.43;;;2.47;;
10303;SDS011;5197;48.152;8.590;2024-02-14T01:41:05;6.43;;;2.33;;
10303;SDS011;5197;48.152;8.590;2024-02-14T01:43:32;3.07;;;2.20;;
10303;SDS011;5197;48.152;8.590;2024-02-14T01:46:03;7.37;;;2.73;;
10303;SDS011;5197;48.152;8.590;2024-02-14T01:48:35;6.30;;;2.10;;
10303;SDS011;5197;48.152;8.590;2024-02-14T01:51:03;6.57;;;2.07;;
10303;SDS011;5197;48.152;8.590;2024-02-14T01:53:34;2.93;;;1.97;;
10303;SDS011;5197;48.152;8.590;2024-02-14T01:56:03;4.27;;;2.43;;
10303;SDS011;5197;48.152;8.590;2024-02-14T01:58:30;5.03;;;2.33;;
10303;SDS011;5197;48.152;8.590;2024-02-14T02:00:57;3.57;;;2.13;;
10303;SDS011;5197;48.152;8.590;2024-02-14T02:03:26;3.47;;;2.37;;
10303;SDS011;5197;48.152;8.590;2024-02-14T02:05:53;2.37;;;2.17;;
10303;SDS011;5197;48.152;8.590;2024-02-14T02:08:21;3.83;;;2.37;;
10303;SDS011;5197;48.152;8.590;2024-02-14T02:10:48;4.33;;;2.20;;
10303;SDS011;5197;48.152;8.590;2024-02-14T02:13:15;2.60;;;1.87;;
10303;SDS011;5197;48.152;8.590;2024-02-14T02:15:42;4.67;;;2.10;;
10303;SDS011;5197;48.152;8.590;2024-02-14T02:18:13;3.73;;;2.17;;
10303;SDS011;5197;48.152;8.590;2024-02-14T02:20:41;3.53;;;2.30;;
10303;SDS011;5197;48.152;8.590;2024-02-14T02:23:11;3.80;;;2.20;;
10303;SDS011;5197;48.152;8.590;2024-02-14T02:25:41;2.77;;;2.10;;
10303;SDS011;5197;48.152;8.590;2024-02-14T02:28:09;6.13;;;2.17;;
10303;SDS011;5197;48.152;8.590;2024-02-14T02:30:36;4.53;;;2.70;;
10303;SDS011;5197;48.152;8.590;2024-02-14T02:33:03;5.57;;;2.73;;
10303;SDS011;5197;48.152;8.590;2024-02-14T02:35:32;4.23;;;2.00;;
10303;SDS011;5197;48.152;8.590;2024-02-14T02:38:00;3.60;;;2.40;;
10303;SDS011;5197;48.152;8.590;2024-02-14T02:40:27;2.67;;;2.10;;
10303;SDS011;5197;48.152;8.590;2024-02-14T02:42:54;6.33;;;2.37;;
10303;SDS011;5197;48.152;8.590;2024-02-14T02:45:21;5.17;;;2.67;;
10303;SDS011;5197;48.152;8.590;2024-02-14T02:47:48;5.00;;;2.40;;
10303;SDS011;5197;48.152;8.590;2024-02-14T02:50:18;5.70;;;2.23;;
10303;SDS011;5197;48.152;8.590;2024-02-14T02:52:46;4.43;;;1.90;;
10303;SDS011;5197;48.152;8.590;2024-02-14T02:55:13;4.90;;;2.27;;
10303;SDS011;5197;48.152;8.590;2024-02-14T02:57:43;4.97;;;2.50;;
10303;SDS011;5197;48.152;8.590;2024-02-14T03:00:11;4.40;;;2.47;;
10303;SDS011;5197;48.152;8.590;2024-02-14T03:02:39;3.93;;;2.00;;
10303;SDS011;5197;48.152;8.590;2024-02-14T03:05:10;4.73;;;2.60;;
10303;SDS011;5197;48.152;8.590;2024-02-14T03:07:44;3.37;;;2.60;;
10303;SDS011;5197;48.152;8.590;2024-02-14T03:10:11;3.70;;;2.70;;
10303;SDS011;5197;48.152;8.590;2024-02-14T03:12:49;4.40;;;2.50;;
10303;SDS011;5197;48.152;8.590;2024-02-14T03:15:17;2.70;;;1.90;;
10303;SDS011;5197;48.152;8.590;2024-02-14T03:17:45;6.53;;;2.67;;
10303;SDS011;5197;48.152;8.590;2024-02-14T03:20:12;5.30;;;2.43;;
10303;SDS011;5197;48.152;8.590;2024-02-14T03:22:43;3.87;;;2.30;;
10303;SDS011;5197;48.152;8.590;2024-02-14T03:25:16;4.00;;;2.40;;
10303;SDS011;5197;48.152;8.590;2024-02-14T03:27:43;4.10;;;2.37;;
10303;SDS011;5197;48.152;8.590;2024-02-14T03:30:19;3.63;;;2.17;;
10303;SDS011;5197;48.152;8.590;2024-02-14T03:32:47;4.60;;;2.33;;
10303;SDS011;5197;48.152;8.590;2024-02-14T03:35:14;2.57;;;2.30;;
10303;SDS011;5197;48.152;8.590;2024-02-14T03:37:42;2.83;;;2.30;;
10303;SDS011;5197;48.152;8.590;2024-02-14T03:40:10;6.43;;;2.30;;
10303;SDS011;5197;48.152;8.590;2024-02-14T03:42:38;4.23;;;2.53;;
10303;SDS011;5197;48.152;8.590;2024-02-14T03:45:08;4.27;;;2.80;;
10303;SDS011;5197;48.152;8.590;2024-02-14T03:47:35;2.73;;;2.27;;
10303;SDS011;5197;48.152;8.590;2024-02-14T03:50:07;2.83;;;2.47;;
10303;SDS011;5197;48.152;8.590;2024-02-14T03:52:34;4.83;;;2.40;;
10303;SDS011;5197;48.152;8.590;2024-02-14T03:55:02;3.97;;;2.20;;
10303;SDS011;5197;48.152;8.590;2024-02-14T03:57:29;4.77;;;2.70;;
10303;SDS011;5197;48.152;8.590;2024-02-14T03:59:59;2.57;;;2.20;;
10303;SDS011;5197;48.152;8.590;2024-02-14T04:02:29;4.83;;;2.50;;
10303;SDS011;5197;48.152;8.590;2024-02-14T04:04:58;4.80;;;2.40;;
10303;SDS011;5197;48.152;8.590;2024-02-14T04:07:25;4.83;;;2.57;;
10303;SDS011;5197;48.152;8.590;2024-02-14T04:09:52;3.30;;;2.27;;
10303;SDS011;5197;48.152;8.590;2024-02-14T04:12:20;5.60;;;2.33;;
10303;SDS011;5197;48.152;8.590;2024-02-14T04:14:47;5.57;;;2.10;;
10303;SDS011;5197;48.152;8.590;2024-02-14T04:17:14;5.47;;;2.30;;
10303;SDS011;5197;48.152;8.590;2024-02-14T04:19:41;3.97;;;2.27;;
10303;SDS011;5197;48.152;8.590;2024-02-14T04:22:08;4.43;;;2.50;;
10303;SDS011;5197;48.152;8.590;2024-02-14T04:24:35;2.83;;;2.20;;
10303;SDS011;5197;48.152;8.590;2024-02-14T04:27:02;5.07;;;2.13;;
10303;SDS011;5197;48.152;8.590;2024-02-14T04:29:31;5.33;;;2.27;;
10303;SDS011;5197;48.152;8.590;2024-02-14T04:32:00;5.83;;;2.20;;
10303;SDS011;5197;48.152;8.590;2024-02-14T04:34:27;2.20;;;2.00;;
10303;SDS011;5197;48.152;8.590;2024-02-14T04:36:54;2.80;;;2.00;;
10303;SDS011;5197;48.152;8.590;2024-02-14T04:39:21;3.40;;;2.00;;
10303;SDS011;5197;48.152;8.590;2024-02-14T04:41:48;3.10;;;1.83;;
10303;SDS011;5197;48.152;8.590;2024-02-14T04:44:27;4.13;;;2.40;;
10303;SDS011;5197;48.152;8.590;2024-02-14T04:47:01;3.03;;;2.10;;
10303;SDS011;5197;48.152;8.590;2024-02-14T04:49:28;4.13;;;2.30;;
10303;SDS011;5197;48.152;8.590;2024-02-14T04:51:58;2.40;;;2.17;;
10303;SDS011;5197;48.152;8.590;2024-02-14T04:54:25;5.60;;;2.60;;
10303;SDS011;5197;48.152;8.590;2024-02-14T04:56:53;7.03;;;2.03;;
10303;SDS011;5197;48.152;8.590;2024-02-14T04:59:24;6.23;;;2.97;;
10303;SDS011;5197;48.152;8.590;2024-02-14T05:01:51;4.93;;;2.40;;
10303;SDS011;5197;48.152;8.590;2024-02-14T05:04:20;3.07;;;2.57;;
10303;SDS011;5197;48.152;8.590;2024-02-14T05:06:48;7.57;;;2.37;;
10303;SDS011;5197;48.152;8.590;2024-02-14T05:09:16;3.37;;;2.70;;
10303;SDS011;5197;48.152;8.590;2024-02-14T05:11:43;7.67;;;3.10;;
10303;SDS011;5197;48.152;8.590;2024-02-14T05:14:10;5.10;;;2.83;;
10303;SDS011;5197;48.152;8.590;2024-02-14T05:16:37;6.63;;;2.67;;
10303;SDS011;5197;48.152;8.590;2024-02-14T05:19:03;3.60;;;2.70;;
10303;SDS011;5197;48.152;8.590;2024-02-14T05:21:31;3.07;;;2.40;;
10303;SDS011;5197;48.152;8.590;2024-02-14T05:23:57;3.93;;;2.33;;
10303;SDS011;5197;48.152;8.590;2024-02-14T05:26:24;3.97;;;2.60;;
10303;SDS011;5197;48.152;8.590;2024-02-14T05:28:51;2.43;;;2.20;;
10303;SDS011;5197;48.152;8.590;2024-02-14T05:31:18;3.40;;;2.20;;
10303;SDS011;5197;48.152;8.590;2024-02-14T05:33:44;5.50;;;2.40;;
10303;SDS011;5197;48.152;8.590;2024-02-14T05:36:12;4.73;;;2.27;;
10303;SDS011;5197;48.152;8.590;2024-02-14T05:38:38;3.13;;;2.70;;
10303;SDS011;5197;48.152;8.590;2024-02-14T05:41:05;5.23;;;2.40;;
10303;SDS011;5197;48.152;8.590;2024-02-14T05:43:34;5.60;;;2.50;;
10303;SDS011;5197;48.152;8.590;2024-02-14T05:46:01;5.03;;;2.80;;
10303;SDS011;5197;48.152;8.590;2024-02-14T05:48:28;3.97;;;2.70;;
10303;SDS011;5197;48.152;8.590;2024-02-14T05:50:55;5.50;;;2.23;;
10303;SDS011;5197;48.152;8.590;2024-02-14T05:53:22;3.53;;;2.43;;
10303;SDS011;5197;48.152;8.590;2024-02-14T05:55:48;4.23;;;2.20;;
10303;SDS011;5197;48.152;8.590;2024-02-14T05:58:15;5.13;;;2.50;;
10303;SDS011;5197;48.152;8.590;2024-02-14T06:00:42;3.93;;;2.20;;
10303;SDS011;5197;48.152;8.590;2024-02-14T06:03:09;5.80;;;1.90;;
10303;SDS011;5197;48.152;8.590;2024-02-14T06:05:36;4.97;;;2.47;;
10303;SDS011;5197;48.152;8.590;2024-02-14T06:08:03;2.67;;;2.07;;
10303;SDS011;5197;48.152;8.590;2024-02-14T06:10:30;2.47;;;2.13;;
10303;SDS011;5197;48.152;8.590;2024-02-14T06:12:57;3.43;;;2.53;;
10303;SDS011;5197;48.152;8.590;2024-02-14T06:15:24;4.73;;;2.27;;
10303;SDS011;5197;48.152;8.590;2024-02-14T06:17:51;7.50;;;2.30;;
10303;SDS011;5197;48.152;8.590;2024-02-14T06:20:18;4.33;;;2.50;;
10303;SDS011;5197;48.152;8.590;2024-02-14T06:22:45;4.33;;;2.80;;
10303;SDS011;5197;48.152;8.590;2024-02-14T06:25:26;3.00;;;2.67;;
10303;SDS011;5197;48.152;8.590;2024-02-14T06:27:53;5.53;;;2.67;;
10303;SDS011;5197;48.152;8.590;2024-02-14T06:30:23;3.33;;;2.70;;
10303;SDS011;5197;48.152;8.590;2024-02-14T06:32:53;2.73;;;2.20;;
10303;SDS011;5197;48.152;8.590;2024-02-14T06:35:21;6.43;;;3.17;;
10303;SDS011;5197;48.152;8.590;2024-02-14T06:37:48;3.73;;;2.97;;
10303;SDS011;5197;48.152;8.590;2024-02-14T06:40:28;3.00;;;2.50;;
10303;SDS011;5197;48.152;8.590;2024-02-14T06:42:56;4.60;;;2.90;;
10303;SDS011;5197;48.152;8.590;2024-02-14T06:45:25;4.30;;;2.33;;
10303;SDS011;5197;48.152;8.590;2024-02-14T06:47:54;5.97;;;3.27;;
10303;SDS011;5197;48.152;8.590;2024-02-14T06:50:21;4.80;;;2.90;;
10303;SDS011;5197;48.152;8.590;2024-02-14T06:52:48;6.50;;;2.60;;
10303;SDS011;5197;48.152;8.590;2024-02-14T06:55:16;2.60;;;2.40;;
10303;SDS011;5197;48.152;8.590;2024-02-14T06:57:43;5.50;;;2.53;;
10303;SDS011;5197;48.152;8.590;2024-02-14T07:00:10;3.10;;;2.47;;
10303;SDS011;5197;48.152;8.590;2024-02-14T07:02:37;5.20;;;2.63;;
10303;SDS011;5197;48.152;8.590;2024-02-14T07:05:04;4.27;;;2.40;;
10303;SDS011;5197;48.152;8.590;2024-02-14T07:07:33;6.60;;;2.50;;
10303;SDS011;5197;48.152;8.590;2024-02-14T07:10:00;5.40;;;2.90;;
10303;SDS011;5197;48.152;8.590;2024-02-14T07:12:32;8.07;;;5.77;;
10303;SDS011;5197;48.152;8.590;2024-02-14T07:14:59;18.77;;;8.93;;
10303;SDS011;5197;48.152;8.590;2024-02-14T07:17:26;8.87;;;4.70;;
10303;SDS011;5197;48.152;8.590;2024-02-14T07:19:53;9.33;;;5.10;;
10303;SDS011;5197;48.152;8.590;2024-02-14T07:22:20;11.27;;;6.63;;
10303;SDS011;5197;48.152;8.590;2024-02-14T07:24:47;7.63;;;3.97;;
10303;SDS011;5197;48.152;8.590;2024-02-14T07:27:14;5.47;;;3.60;;
10303;SDS011;5197;48.152;8.590;2024-02-14T07:29:42;4.40;;;3.20;;
10303;SDS011;5197;48.152;8.590;2024-02-14T07:32:11;9.50;;;4.57;;
10303;SDS011;5197;48.152;8.590;2024-02-14T07:34:38;5.30;;;2.97;;
10303;SDS011;5197;48.152;8.590;2024-02-14T07:37:08;9.33;;;2.97;;
10303;SDS011;5197;48.152;8.590;2024-02-14T07:39:35;5.23;;;2.70;;
10303;SDS011;5197;48.152;8.590;2024-02-14T07:42:02;4.80;;;2.30;;
10303;SDS011;5197;48.152;8.590;2024-02-14T07:44:30;3.67;;;2.30;;
10303;SDS011;5197;48.152;8.590;2024-02-14T07:46:57;6.63;;;2.40;;
10303;SDS011;5197;48.152;8.590;2024-02-14T07:49:29;3.43;;;2.37;;
10303;SDS011;5197;48.152;8.590;2024-02-14T07:51:56;3.13;;;2.80;;
10303;SDS011;5197;48.152;8.590;2024-02-14T07:54:22;4.70;;;3.13;;
10303;SDS011;5197;48.152;8.590;2024-02-14T07:56:49;8.60;;;3.77;;
10303;SDS011;5197;48.152;8.590;2024-02-14T07:59:17;5.40;;;3.53;;
10303;SDS011;5197;48.152;8.590;2024-02-14T08:01:44;6.83;;;3.90;;
10303;SDS011;5197;48.152;8.590;2024-02-14T08:04:11;4.13;;;2.90;;
10303;SDS011;5197;48.152;8.590;2024-02-14T08:06:38;5.70;;;3.07;;
10303;SDS011;5197;48.152;8.590;2024-02-14T08:09:05;5.23;;;2.90;;
10303;SDS011;5197;48.152;8.590;2024-02-14T08:11:36;4.20;;;2.47;;
10303;SDS011;5197;48.152;8.590;2024-02-14T08:14:03;5.43;;;3.40;;
10303;SDS011;5197;48.152;8.590;2024-02-14T08:16:31;5.17;;;3.13;;
10303;SDS011;5197;48.152;8.590;2024-02-14T08:18:58;4.07;;;3.03;;
10303;SDS011;5197;48.152;8.590;2024-02-14T08:21:26;6.73;;;3.60;;
10303;SDS011;5197;48.152;8.590;2024-02-14T08:23:57;5.37;;;3.20;;
10303;SDS011;5197;48.152;8.590;2024-02-14T08:26:26;4.10;;;3.13;;
10303;SDS011;5197;48.152;8.590;2024-02-14T08:28:53;7.33;;;2.83;;
10303;SDS011;5197;48.152;8.590;2024-02-14T08:31:20;3.13;;;2.10;;
10303;SDS011;5197;48.152;8.590;2024-02-14T08:33:47;4.93;;;3.03;;
10303;SDS011;5197;48.152;8.590;2024-02-14T08:36:14;2.63;;;2.43;;
10303;SDS011;5197;48.152;8.590;2024-02-14T08:38:43;2.63;;;2.13;;
10303;SDS011;5197;48.152;8.590;2024-02-14T08:41:10;3.60;;;3.03;;
10303;SDS011;5197;48.152;8.590;2024-02-14T08:43:38;6.23;;;3.27;;
10303;SDS011;5197;48.152;8.590;2024-02-14T08:46:11;4.40;;;3.13;;
10303;SDS011;5197;48.152;8.590;2024-02-14T08:48:38;5.77;;;2.50;;
10303;SDS011;5197;48.152;8.590;2024-02-14T08:51:13;3.13;;;2.23;;
10303;SDS011;5197;48.152;8.590;2024-02-14T08:53:40;3.73;;;3.20;;
10303;SDS011;5197;48.152;8.590;2024-02-14T08:56:10;2.53;;;2.30;;
10303;SDS011;5197;48.152;8.590;2024-02-14T08:58:37;3.33;;;2.50;;
10303;SDS011;5197;48.152;8.590;2024-02-14T09:01:04;5.10;;;3.00;;
10303;SDS011;5197;48.152;8.590;2024-02-14T09:03:40;4.53;;;2.70;;
10303;SDS011;5197;48.152;8.590;2024-02-14T09:06:10;3.73;;;2.67;;
10303;SDS011;5197;48.152;8.590;2024-02-14T09:08:37;2.93;;;2.70;;
10303;SDS011;5197;48.152;8.590;2024-02-14T09:11:04;6.07;;;3.00;;
10303;SDS011;5197;48.152;8.590;2024-02-14T09:13:31;2.63;;;2.23;;
10303;SDS011;5197;48.152;8.590;2024-02-14T09:15:58;4.73;;;2.33;;
10303;SDS011;5197;48.152;8.590;2024-02-14T09:18:26;5.13;;;3.43;;
10303;SDS011;5197;48.152;8.590;2024-02-14T09:20:53;6.27;;;3.60;;
10303;SDS011;5197;48.152;8.590;2024-02-14T09:23:20;4.60;;;3.17;;
10303;SDS011;5197;48.152;8.590;2024-02-14T09:25:49;4.33;;;2.70;;
10303;SDS011;5197;48.152;8.590;2024-02-14T09:28:16;3.93;;;2.43;;
10303;SDS011;5197;48.152;8.590;2024-02-14T09:30:43;3.90;;;2.43;;
10303;SDS011;5197;48.152;8.590;2024-02-14T09:33:10;3.43;;;2.37;;
10303;SDS011;5197;48.152;8.590;2024-02-14T09:35:37;3.33;;;2.43;;
10303;SDS011;5197;48.152;8.590;2024-02-14T09:38:10;3.70;;;2.50;;
10303;SDS011;5197;48.152;8.590;2024-02-14T09:40:42;3.97;;;2.50;;
10303;SDS011;5197;48.152;8.590;2024-02-14T09:43:12;4.60;;;3.20;;
10303;SDS011;5197;48.152;8.590;2024-02-14T09:45:53;6.27;;;3.33;;
10303;SDS011;5197;48.152;8.590;2024-02-14T09:48:20;2.27;;;1.60;;
10303;SDS011;5197;48.152;8.590;2024-02-14T09:50:49;2.70;;;1.40;;
10303;SDS011;5197;48.152;8.590;2024-02-14T09:53:17;1.80;;;1.40;;
10303;SDS011;5197;48.152;8.590;2024-02-14T09:55:45;2.20;;;1.20;;
10303;SDS011;5197;48.152;8.590;2024-02-14T09:58:12;1.60;;;1.50;;
10303;SDS011;5197;48.152;8.590;2024-02-14T10:00:40;1.37;;;1.27;;
10303;SDS011;5197;48.152;8.590;2024-02-14T10:03:07;1.20;;;1.10;;
10303;SDS011;5197;48.152;8.590;2024-02-14T10:05:35;1.47;;;1.37;;
10303;SDS011;5197;48.152;8.590;2024-02-14T10:08:02;2.03;;;1.03;;
10303;SDS011;5197;48.152;8.590;2024-02-14T10:10:31;3.97;;;2.63;;
10303;SDS011;5197;48.152;8.590;2024-02-14T10:13:03;3.10;;;1.57;;
10303;SDS011;5197;48.152;8.590;2024-02-14T10:15:31;2.87;;;1.80;;
10303;SDS011;5197;48.152;8.590;2024-02-14T10:17:59;4.70;;;2.70;;
10303;SDS011;5197;48.152;8.590;2024-02-14T10:20:26;1.10;;;1.10;;
10303;SDS011;5197;48.152;8.590;2024-02-14T10:23:00;2.70;;;1.50;;
10303;SDS011;5197;48.152;8.590;2024-02-14T10:25:28;1.50;;;1.20;;
10303;SDS011;5197;48.152;8.590;2024-02-14T10:27:55;1.23;;;1.07;;
10303;SDS011;5197;48.152;8.590;2024-02-14T10:30:22;1.30;;;1.20;;
10303;SDS011;5197;48.152;8.590;2024-02-14T10:32:49;2.53;;;1.10;;
10303;SDS011;5197;48.152;8.590;2024-02-14T10:35:16;4.47;;;2.40;;
10303;SDS011;5197;48.152;8.590;2024-02-14T10:37:46;3.83;;;2.43;;
10303;SDS011;5197;48.152;8.590;2024-02-14T10:40:15;4.93;;;2.87;;
10303;SDS011;5197;48.152;8.590;2024-02-14T10:42:41;1.73;;;1.37;;
10303;SDS011;5197;48.152;8.590;2024-02-14T10:45:08;2.33;;;1.90;;
10303;SDS011;5197;48.152;8.590;2024-02-14T10:47:36;1.70;;;1.20;;
10303;SDS011;5197;48.152;8.590;2024-02-14T10:50:07;4.07;;;2.40;;
10303;SDS011;5197;48.152;8.590;2024-02-14T10:52:36;1.00;;;0.80;;
10303;SDS011;5197;48.152;8.590;2024-02-14T10:55:03;3.50;;;1.80;;
10303;SDS011;5197;48.152;8.590;2024-02-14T10:57:32;6.27;;;3.30;;
10303;SDS011;5197;48.152;8.590;2024-02-14T11:00:00;1.20;;;1.10;;
10303;SDS011;5197;48.152;8.590;2024-02-14T11:02:29;4.13;;;2.47;;
10303;SDS011;5197;48.152;8.590;2024-02-14T11:04:59;1.00;;;0.83;;
10303;SDS011;5197;48.152;8.590;2024-02-14T11:07:30;5.73;;;3.07;;
10303;SDS011;5197;48.152;8.590;2024-02-14T11:10:16;2.63;;;1.87;;
10303;SDS011;5197;48.152;8.590;2024-02-14T11:12:46;1.20;;;1.00;;
10303;SDS011;5197;48.152;8.590;2024-02-14T11:15:17;1.10;;;1.10;;
10303;SDS011;5197;48.152;8.590;2024-02-14T11:17:46;0.80;;;0.73;;
10303;SDS011;5197;48.152;8.590;2024-02-14T11:20:19;0.50;;;0.50;;
10303;SDS011;5197;48.152;8.590;2024-02-14T11:23:00;0.63;;;0.50;;
10303;SDS011;5197;48.152;8.590;2024-02-14T11:25:38;0.70;;;0.70;;
10303;SDS011;5197;48.152;8.590;2024-02-14T11:28:18;2.50;;;0.60;;
10303;SDS011;5197;48.152;8.590;2024-02-14T11:30:50;0.47;;;0.40;;
10303;SDS011;5197;48.152;8.590;2024-02-14T11:35:47;0.50;;;0.50;;
10303;SDS011;5197;48.152;8.590;2024-02-14T11:38:18;0.50;;;0.50;;
10303;SDS011;5197;48.152;8.590;2024-02-14T11:40:45;0.50;;;0.50;;
10303;SDS011;5197;48.152;8.590;2024-02-14T11:43:13;0.50;;;0.50;;
10303;SDS011;5197;48.152;8.590;2024-02-14T11:45:41;0.57;;;0.57;;
10303;SDS011;5197;48.152;8.590;2024-02-14T11:48:09;1.13;;;0.60;;
10303;SDS011;5197;48.152;8.590;2024-02-14T11:50:40;0.40;;;0.40;;
10303;SDS011;5197;48.152;8.590;2024-02-14T11:53:09;0.60;;;0.60;;
10303;SDS011;5197;48.152;8.590;2024-02-14T11:55:38;0.20;;;0.20;;
10303;SDS011;5197;48.152;8.590;2024-02-14T11:58:09;1.40;;;0.47;;
10303;SDS011;5197;48.152;8.590;2024-02-14T12:00:37;0.30;;;0.30;;
10303;SDS011;5197;48.152;8.590;2024-02-14T12:03:07;0.47;;;0.37;;
10303;SDS011;5197;48.152;8.590;2024-02-14T12:05:37;0.23;;;0.23;;
10303;SDS011;5197;48.152;8.590;2024-02-14T12:08:05;0.20;;;0.20;;
10303;SDS011;5197;48.152;8.590;2024-02-14T12:10:34;0.43;;;0.37;;
10303;SDS011;5197;48.152;8.590;2024-02-14T12:13:13;0.30;;;0.30;;
10303;SDS011;5197;48.152;8.590;2024-02-14T12:15:45;0.50;;;0.50;;
10303;SDS011;5197;48.152;8.590;2024-02-14T12:18:13;0.80;;;0.33;;
10303;SDS011;5197;48.152;8.590;2024-02-14T12:20:41;0.50;;;0.50;;
10303;SDS011;5197;48.152;8.590;2024-02-14T12:23:18;0.53;;;0.53;;
10303;SDS011;5197;48.152;8.590;2024-02-14T12:25:46;0.30;;;0.30;;
10303;SDS011;5197;48.152;8.590;2024-02-14T12:28:15;0.50;;;0.43;;
10303;SDS011;5197;48.152;8.590;2024-02-14T12:30:44;0.30;;;0.30;;
10303;SDS011;5197;48.152;8.590;2024-02-14T12:33:12;0.43;;;0.40;;
10303;SDS011;5197;48.152;8.590;2024-02-14T12:35:46;0.23;;;0.20;;
10303;SDS011;5197;48.152;8.590;2024-02-14T12:38:15;0.27;;;0.27;;
10303;SDS011;5197;48.152;8.590;2024-02-14T12:40:44;0.43;;;0.43;;
10303;SDS011;5197;48.152;8.590;2024-02-14T12:43:12;0.97;;;0.97;;
10303;SDS011;5197;48.152;8.590;2024-02-14T12:45:40;0.50;;;0.50;;
10303;SDS011;5197;48.152;8.590;2024-02-14T12:48:08;0.50;;;0.50;;
10303;SDS011;5197;48.152;8.590;2024-02-14T12:50:38;1.10;;;1.00;;
10303;SDS011;5197;48.152;8.590;2024-02-14T12:53:06;0.60;;;0.60;;
10303;SDS011;5197;48.152;8.590;2024-02-14T12:55:34;1.33;;;0.50;;
10303;SDS011;5197;48.152;8.590;2024-02-14T12:58:01;1.70;;;0.30;;
10303;SDS011;5197;48.152;8.590;2024-02-14T13:00:28;1.07;;;0.77;;
10303;SDS011;5197;48.152;8.590;2024-02-14T13:02:55;0.50;;;0.50;;
10303;SDS011;5197;48.152;8.590;2024-02-14T13:05:22;0.60;;;0.60;;
10303;SDS011;5197;48.152;8.590;2024-02-14T13:07:52;0.50;;;0.50;;
10303;SDS011;5197;48.152;8.590;2024-02-14T13:10:19;1.13;;;0.60;;
10303;SDS011;5197;48.152;8.590;2024-02-14T13:12:46;0.30;;;0.30;;
10303;SDS011;5197;48.152;8.590;2024-02-14T13:15:13;0.47;;;0.47;;
10303;SDS011;5197;48.152;8.590;2024-02-14T13:17:40;0.70;;;0.70;;
10303;SDS011;5197;48.152;8.590;2024-02-14T13:20:07;0.63;;;0.63;;
10303;SDS011;5197;48.152;8.590;2024-02-14T13:22:36;0.60;;;0.60;;
10303;SDS011;5197;48.152;8.590;2024-02-14T13:25:03;0.40;;;0.37;;
10303;SDS011;5197;48.152;8.590;2024-02-14T13:27:31;0.63;;;0.50;;
10303;SDS011;5197;48.152;8.590;2024-02-14T13:29:59;1.00;;;0.50;;
10303;SDS011;5197;48.152;8.590;2024-02-14T13:32:27;2.20;;;0.53;;
10303;SDS011;5197;48.152;8.590;2024-02-14T13:34:53;0.30;;;0.30;;
10303;SDS011;5197;48.152;8.590;2024-02-14T13:37:21;0.30;;;0.30;;
10303;SDS011;5197;48.152;8.590;2024-02-14T13:39:48;0.20;;;0.20;;
10303;SDS011;5197;48.152;8.590;2024-02-14T13:42:14;1.63;;;0.60;;
10303;SDS011;5197;48.152;8.590;2024-02-14T13:44:41;0.30;;;0.30;;
10303;SDS011;5197;48.152;8.590;2024-02-14T13:47:09;0.70;;;0.70;;
10303;SDS011;5197;48.152;8.590;2024-02-14T13:49:36;0.50;;;0.50;;
10303;SDS011;5197;48.152;8.590;2024-02-14T13:52:03;2.43;;;1.50;;
10303;SDS011;5197;48.152;8.590;2024-02-14T13:54:30;1.40;;;1.30;;
10303;SDS011;5197;48.152;8.590;2024-02-14T13:56:57;0.50;;;0.50;;
10303;SDS011;5197;48.152;8.590;2024-02-14T13:59:24;0.53;;;0.53;;
10303;SDS011;5197;48.152;8.590;2024-02-14T14:01:52;0.23;;;0.20;;
10303;SDS011;5197;48.152;8.590;2024-02-14T14:04:20;0.70;;;0.70;;
10303;SDS011;5197;48.152;8.590;2024-02-14T14:06:47;1.23;;;1.13;;
10303;SDS011;5197;48.152;8.590;2024-02-14T14:09:14;1.10;;;1.10;;
10303;SDS011;5197;48.152;8.590;2024-02-14T14:11:41;1.00;;;0.90;;
10303;SDS011;5197;48.152;8.590;2024-02-14T14:14:08;1.10;;;0.83;;
10303;SDS011;5197;48.152;8.590;2024-02-14T14:16:37;0.67;;;0.67;;
10303;SDS011;5197;48.152;8.590;2024-02-14T14:19:04;0.80;;;0.80;;
10303;SDS011;5197;48.152;8.590;2024-02-14T14:21:32;0.60;;;0.60;;
10303;SDS011;5197;48.152;8.590;2024-02-14T14:23:58;0.90;;;0.90;;
10303;SDS011;5197;48.152;8.590;2024-02-14T14:26:25;0.63;;;0.50;;
10303;SDS011;5197;48.152;8.590;2024-02-14T14:28:52;0.30;;;0.27;;
10303;SDS011;5197;48.152;8.590;2024-02-14T14:31:20;1.37;;;0.33;;
10303;SDS011;5197;48.152;8.590;2024-02-14T14:33:47;0.30;;;0.30;;
10303;SDS011;5197;48.152;8.590;2024-02-14T14:36:15;0.17;;;0.17;;
10303;SDS011;5197;48.152;8.590;2024-02-14T14:38:43;0.20;;;0.20;;
10303;SDS011;5197;48.152;8.590;2024-02-14T14:41:09;0.20;;;0.20;;
10303;SDS011;5197;48.152;8.590;2024-02-14T14:43:37;0.20;;;0.20;;
10303;SDS011;5197;48.152;8.590;2024-02-14T14:46:04;0.20;;;0.20;;
10303;SDS011;5197;48.152;8.590;2024-02-14T14:48:31;0.20;;;0.10;;
10303;SDS011;5197;48.152;8.590;2024-02-14T14:50:58;0.33;;;0.10;;
10303;SDS011;5197;48.152;8.590;2024-02-14T14:53:25;0.10;;;0.10;;
10303;SDS011;5197;48.152;8.590;2024-02-14T14:55:56;0.10;;;0.10;;
10303;SDS011;5197;48.152;8.590;2024-02-14T14:58:24;0.40;;;0.20;;
10303;SDS011;5197;48.152;8.590;2024-02-14T15:00:54;0.30;;;0.30;;
10303;SDS011;5197;48.152;8.590;2024-02-14T15:03:27;1.50;;;1.40;;
10303;SDS011;5197;48.152;8.590;2024-02-14T15:05:54;0.87;;;0.87;;
10303;SDS011;5197;48.152;8.590;2024-02-14T15:08:21;0.87;;;0.87;;